Atlantic Beach, Florida
Current Conditions -  °F | °C
As of 11:52 PM on Friday 24 Oct 2014 (Local Time) from KNRB Reporting Station
Clear Clear  
Wind Chill: 65°   Ceiling: Unl
Heat Index: 65°   Visibility: 10mi
Dew Point: 55°   Wind: 5mph
Humidity: 70%   Direction: 350°N
Pressure: 30"   Gusts: NA
Location:  30.33°N, 81.4°W
Report Text: KNRB 250352Z AUTO 35004KT 10SM CLR 18/13 A3000 RMK AO2 SLP159 T01830128
Loading
Personal Weather Stations






























Interactive Weather Map
Tropical Storm Tracking
New forecast layout! Learn more

10-Day Weather Forecast

Advertisements
Track Severe Weather on mobile